D/T METAR WX W/DIR W/SPE G/SPE TEMP DEWP
20/06/19 16:20 EGNO 201520Z 26014KT 9999 FEW038 16/07 Q1011 W (260°) 16.1mph 16°C 7°C
20/06/19 15:50 EGNO 201450Z 26013KT 9999 FEW028 15/07 Q1011 W (260°) 15.0mph 15°C 7°C
20/06/19 15:20 EGNO 201420Z 28012KT 9999 SCT025 15/07 Q1011 W (280°) 13.8mph 15°C 7°C
20/06/19 14:50 EGNO 201350Z 27014KT 250V320 9999 SCT028 15/08 Q1011 W (270°) 16.1mph 15°C 8°C
20/06/19 14:20 EGNO 201320Z 28013KT 250V310 9999 SCT024 15/09 Q1011 W (280°) 15.0mph 15°C 9°C
20/06/19 13:50 EGNO 201250Z 28016KT 9999 SCT022 14/08 Q1011 W (280°) 18.4mph 14°C 8°C
20/06/19 13:20 EGNO 201220Z 26015KT 9999 SCT023 15/09 Q1011 W (260°) 17.3mph 15°C 9°C
20/06/19 11:50 EGNO 201050Z 26015KT 9999 SCT022 15/10 Q1011 W (260°) 17.3mph 15°C 10°C
20/06/19 11:20 EGNO 201020Z 28014KT 250V310 9999 SCT022 14/08 Q1010 W (280°) 16.1mph 14°C 8°C
20/06/19 10:20 EGNO 200920Z 27013KT 9999 SCT024 14/09 Q1010 W (270°) 15.0mph 14°C 9°C
20/06/19 09:50 EGNO 200850Z 27015KT 240V300 9999 SCT020TCU 14/10 Q1010 W (270°) 17.3mph 14°C 10°C
20/06/19 09:20 EGNO 200820Z 28012KT 250V310 9999 VCSH SCT020TCU 14/10 Q1009 VCSH W (280°) 13.8mph 14°C 10°C
20/06/19 08:50 EGNO 200750Z 28012KT 9999 VCSH FEW015 SCT020TCU 13/10 Q1009 VCSH W (280°) 13.8mph 13°C 10°C
20/06/19 07:50 EGNO 200650Z 27011KT 9999 -SHRA FEW011 SCT017TCU BKN041 13/10 Q1009 -SHRA W (270°) 12.7mph 13°C 10°C
20/06/19 07:20 EGNO 200620Z 28010KT 9999 VCSH FEW011 SCT017 BKN041 12/11 Q1009 RESHRA VCSH W (280°) 11.5mph 12°C 11°C
20/06/19 06:50 EGNO 200550Z 28011KT 9999 SCT017 13/10 Q1008 W (280°) 12.7mph 13°C 10°C
19/06/19 19:20 EGNO 191820Z 25006KT 9999 FEW040 16/09 Q1008 WSW (250°) 6.9mph 16°C 9°C
19/06/19 18:50 EGNO 191750Z 26008KT 9999 FEW040 16/10 Q1008 W (260°) 9.2mph 16°C 10°C
19/06/19 18:20 EGNO 191720Z 27009KT 240V300 9999 FEW043 17/08 Q1007 W (270°) 10.4mph 17°C 8°C
19/06/19 17:50 EGNO 191650Z 29009KT 9999 FEW043 17/09 Q1008 WNW (290°) 10.4mph 17°C 9°C
19/06/19 16:50 EGNO 191550Z 29009KT 260V330 9999 FEW020 18/10 Q1008 WNW (290°) 10.4mph 18°C 10°C
19/06/19 16:20 EGNO 191520Z 30011KT 9999 FEW020 18/12 Q1008 WNW (300°) 12.7mph 18°C 12°C
19/06/19 15:50 EGNO 191450Z 29012KT 9999 FEW020 17/12 Q1008 WNW (290°) 13.8mph 17°C 12°C
19/06/19 15:20 EGNO 191420Z 31011KT 9999 FEW020 18/12 Q1008 NW (310°) 12.7mph 18°C 12°C
19/06/19 14:50 EGNO 191350Z 29009KT 260V330 9999 FEW016 18/13 Q1008 WNW (290°) 10.4mph 18°C 13°C
19/06/19 14:20 EGNO 191320Z 28009KT 220V300 9999 FEW016 18/13 Q1008 W (280°) 10.4mph 18°C 13°C
19/06/19 13:50 EGNO 191250Z 24008KT 210V270 9999 FEW018 17/14 Q1008 WSW (240°) 9.2mph 17°C 14°C
19/06/19 13:20 EGNO 191220Z 26008KT 220V280 9999 FEW021 16/13 Q1008 W (260°) 9.2mph 16°C 13°C
19/06/19 12:50 EGNO 191150Z 24008KT 190V270 9999 FEW021 17/13 Q1008 WSW (240°) 9.2mph 17°C 13°C
19/06/19 12:20 EGNO 191120Z 28008KT 230V320 9999 FEW021 17/13 Q1008 W (280°) 9.2mph 17°C 13°C
19/06/19 11:50 EGNO 191050Z 26007KT 220V290 9999 FEW021 16/11 Q1008 W (260°) 8.1mph 16°C 11°C
19/06/19 11:20 EGNO 191020Z 27005KT 220V350 9999 FEW022 16/13 Q1008 W (270°) 5.8mph 16°C 13°C
19/06/19 10:50 EGNO 190950Z 28006KT 230V340 9999 FEW017 16/10 Q1008 W (280°) 6.9mph 16°C 10°C
19/06/19 10:20 EGNO 190920Z 29005KT 240V020 9999 FEW017 16/12 Q1008 WNW (290°) 5.8mph 16°C 12°C
19/06/19 09:20 EGNO 190820Z 33004KT 300V040 9999 FEW028 15/11 Q1008 NNW (330°) 4.6mph 15°C 11°C
19/06/19 08:50 EGNO 190750Z 34004KT 310V020 9999 FEW034 14/11 Q1008 NNW (340°) 4.6mph 14°C 11°C
19/06/19 08:20 EGNO 190720Z VRB03KT 9999 FEW034 14/11 Q1008 N (0°) 3.5mph 14°C 11°C
19/06/19 07:50 EGNO 190650Z VRB02KT 9999 FEW034 13/12 Q1008 N (0°) 2.3mph 13°C 12°C
19/06/19 07:20 EGNO 190620Z 35002KT 9999 FEW034 SCT045 12/11 Q1008 N (350°) 2.3mph 12°C 11°C
19/06/19 06:50 EGNO 190550Z VRB02KT 9999 -RA FEW020 SCT041 12/11 Q1008 -RA N (0°) 2.3mph 12°C 11°C
18/06/19 19:20 EGNO 181820Z 32006KT 260V350 9999 FEW045 17/11 Q1011 NW (320°) 6.9mph 17°C 11°C
18/06/19 18:50 EGNO 181750Z 33006KT 9999 FEW045 17/11 Q1011 NNW (330°) 6.9mph 17°C 11°C
18/06/19 18:20 EGNO 181720Z 29006KT 260V320 9999 SCT037 18/11 Q1011 WNW (290°) 6.9mph 18°C 11°C
18/06/19 17:50 EGNO 181650Z 30006KT 220V030 9999 SCT033 18/11 Q1011 WNW (300°) 6.9mph 18°C 11°C
18/06/19 17:20 EGNO 181620Z 28004KT 200V340 9999 SCT033 18/11 Q1011 W (280°) 4.6mph 18°C 11°C
18/06/19 16:50 EGNO 181550Z 33006KT 300V360 9999 FEW032 18/11 Q1012 NNW (330°) 6.9mph 18°C 11°C
18/06/19 16:20 EGNO 181520Z 28006KT 230V320 9999 SCT038 18/11 Q1012 W (280°) 6.9mph 18°C 11°C
18/06/19 15:50 EGNO 181450Z 29006KT 250V340 9999 SCT040 18/11 Q1012 WNW (290°) 6.9mph 18°C 11°C